sensor_id;sensor_type;location;lat;lon;timestamp;P1;durP1;ratioP1;P2;durP2;ratioP2
58372;SDS011;44177;43.356;27.672;2022-12-24T00:02:21;6.57;;;4.93;;
58372;SDS011;44177;43.356;27.672;2022-12-24T00:04:47;6.47;;;4.93;;
58372;SDS011;44177;43.356;27.672;2022-12-24T00:07:12;6.43;;;4.82;;
58372;SDS011;44177;43.356;27.672;2022-12-24T00:09:38;7.90;;;5.50;;
58372;SDS011;44177;43.356;27.672;2022-12-24T00:12:03;7.70;;;5.35;;
58372;SDS011;44177;43.356;27.672;2022-12-24T00:14:29;8.45;;;5.13;;
58372;SDS011;44177;43.356;27.672;2022-12-24T00:16:55;7.20;;;5.15;;
58372;SDS011;44177;43.356;27.672;2022-12-24T00:19:20;6.45;;;5.15;;
58372;SDS011;44177;43.356;27.672;2022-12-24T00:21:46;6.97;;;5.15;;
58372;SDS011;44177;43.356;27.672;2022-12-24T00:24:11;6.32;;;4.90;;
58372;SDS011;44177;43.356;27.672;2022-12-24T00:26:37;7.57;;;5.30;;
58372;SDS011;44177;43.356;27.672;2022-12-24T00:29:03;8.73;;;5.28;;
58372;SDS011;44177;43.356;27.672;2022-12-24T00:31:28;7.70;;;5.03;;
58372;SDS011;44177;43.356;27.672;2022-12-24T00:33:54;7.30;;;5.15;;
58372;SDS011;44177;43.356;27.672;2022-12-24T00:36:19;7.38;;;4.82;;
58372;SDS011;44177;43.356;27.672;2022-12-24T00:38:45;6.82;;;4.65;;
58372;SDS011;44177;43.356;27.672;2022-12-24T00:41:12;7.35;;;4.60;;
58372;SDS011;44177;43.356;27.672;2022-12-24T00:46:21;7.55;;;6.22;;
58372;SDS011;44177;43.356;27.672;2022-12-24T00:48:48;6.45;;;4.88;;
58372;SDS011;44177;43.356;27.672;2022-12-24T00:51:14;7.10;;;5.07;;
58372;SDS011;44177;43.356;27.672;2022-12-24T00:53:40;7.18;;;4.70;;
58372;SDS011;44177;43.356;27.672;2022-12-24T00:56:05;7.47;;;4.95;;
58372;SDS011;44177;43.356;27.672;2022-12-24T00:58:31;6.68;;;4.38;;
58372;SDS011;44177;43.356;27.672;2022-12-24T01:00:57;8.13;;;5.30;;
58372;SDS011;44177;43.356;27.672;2022-12-24T01:03:23;7.32;;;5.22;;
58372;SDS011;44177;43.356;27.672;2022-12-24T01:05:58;6.15;;;4.70;;
58372;SDS011;44177;43.356;27.672;2022-12-24T01:08:23;6.28;;;4.38;;
58372;SDS011;44177;43.356;27.672;2022-12-24T01:10:49;6.35;;;4.70;;
58372;SDS011;44177;43.356;27.672;2022-12-24T01:13:14;6.60;;;4.90;;
58372;SDS011;44177;43.356;27.672;2022-12-24T01:15:40;6.82;;;4.65;;
58372;SDS011;44177;43.356;27.672;2022-12-24T01:18:05;6.90;;;4.63;;
58372;SDS011;44177;43.356;27.672;2022-12-24T01:20:30;7.75;;;4.63;;
58372;SDS011;44177;43.356;27.672;2022-12-24T01:22:57;7.55;;;5.05;;
58372;SDS011;44177;43.356;27.672;2022-12-24T01:25:22;5.95;;;4.65;;
58372;SDS011;44177;43.356;27.672;2022-12-24T01:27:48;6.32;;;4.78;;
58372;SDS011;44177;43.356;27.672;2022-12-24T01:30:13;7.13;;;4.38;;
58372;SDS011;44177;43.356;27.672;2022-12-24T01:32:39;6.57;;;4.30;;
58372;SDS011;44177;43.356;27.672;2022-12-24T01:35:05;6.25;;;4.45;;
58372;SDS011;44177;43.356;27.672;2022-12-24T01:37:31;6.32;;;4.25;;
58372;SDS011;44177;43.356;27.672;2022-12-24T01:39:56;6.47;;;4.80;;
58372;SDS011;44177;43.356;27.672;2022-12-24T01:42:43;6.55;;;4.90;;
58372;SDS011;44177;43.356;27.672;2022-12-24T01:48:13;6.20;;;4.43;;
58372;SDS011;44177;43.356;27.672;2022-12-24T01:50:43;6.97;;;4.63;;
58372;SDS011;44177;43.356;27.672;2022-12-24T01:53:10;6.80;;;4.95;;
58372;SDS011;44177;43.356;27.672;2022-12-24T01:55:38;6.80;;;4.82;;
58372;SDS011;44177;43.356;27.672;2022-12-24T01:58:04;7.35;;;5.18;;
58372;SDS011;44177;43.356;27.672;2022-12-24T02:00:32;6.38;;;4.93;;
58372;SDS011;44177;43.356;27.672;2022-12-24T02:02:57;7.20;;;4.63;;
58372;SDS011;44177;43.356;27.672;2022-12-24T02:05:26;7.63;;;4.53;;
58372;SDS011;44177;43.356;27.672;2022-12-24T02:07:55;6.82;;;4.63;;
58372;SDS011;44177;43.356;27.672;2022-12-24T02:10:21;6.07;;;4.53;;
58372;SDS011;44177;43.356;27.672;2022-12-24T02:12:47;7.65;;;4.72;;
58372;SDS011;44177;43.356;27.672;2022-12-24T02:15:13;5.43;;;4.18;;
58372;SDS011;44177;43.356;27.672;2022-12-24T02:17:58;6.22;;;4.25;;
58372;SDS011;44177;43.356;27.672;2022-12-24T02:20:44;7.45;;;4.57;;
58372;SDS011;44177;43.356;27.672;2022-12-24T02:29:04;7.30;;;4.60;;
58372;SDS011;44177;43.356;27.672;2022-12-24T02:31:49;7.13;;;4.82;;
58372;SDS011;44177;43.356;27.672;2022-12-24T02:37:03;6.72;;;4.57;;
58372;SDS011;44177;43.356;27.672;2022-12-24T02:39:44;6.60;;;4.90;;
58372;SDS011;44177;43.356;27.672;2022-12-24T02:42:15;7.15;;;4.55;;
58372;SDS011;44177;43.356;27.672;2022-12-24T02:44:49;7.97;;;5.13;;
58372;SDS011;44177;43.356;27.672;2022-12-24T02:47:20;6.07;;;4.40;;
58372;SDS011;44177;43.356;27.672;2022-12-24T02:49:48;8.82;;;5.10;;
58372;SDS011;44177;43.356;27.672;2022-12-24T02:55:14;7.43;;;4.47;;
58372;SDS011;44177;43.356;27.672;2022-12-24T03:06:22;7.72;;;4.85;;
58372;SDS011;44177;43.356;27.672;2022-12-24T03:09:01;7.13;;;4.80;;
58372;SDS011;44177;43.356;27.672;2022-12-24T03:11:53;6.32;;;4.32;;
58372;SDS011;44177;43.356;27.672;2022-12-24T03:14:28;7.15;;;4.97;;
58372;SDS011;44177;43.356;27.672;2022-12-24T03:16:55;6.65;;;4.75;;
58372;SDS011;44177;43.356;27.672;2022-12-24T03:19:23;8.43;;;5.28;;
58372;SDS011;44177;43.356;27.672;2022-12-24T03:21:50;6.65;;;4.80;;
58372;SDS011;44177;43.356;27.672;2022-12-24T03:24:18;7.85;;;5.13;;
58372;SDS011;44177;43.356;27.672;2022-12-24T03:26:44;6.68;;;5.25;;
58372;SDS011;44177;43.356;27.672;2022-12-24T03:29:11;7.10;;;4.50;;
58372;SDS011;44177;43.356;27.672;2022-12-24T03:31:46;7.25;;;5.05;;
58372;SDS011;44177;43.356;27.672;2022-12-24T03:34:14;6.05;;;4.28;;
58372;SDS011;44177;43.356;27.672;2022-12-24T03:36:40;6.88;;;4.45;;
58372;SDS011;44177;43.356;27.672;2022-12-24T03:39:06;6.50;;;4.68;;
58372;SDS011;44177;43.356;27.672;2022-12-24T03:41:32;6.10;;;4.30;;
58372;SDS011;44177;43.356;27.672;2022-12-24T03:43:57;6.72;;;4.82;;
58372;SDS011;44177;43.356;27.672;2022-12-24T03:46:23;6.55;;;4.45;;
58372;SDS011;44177;43.356;27.672;2022-12-24T03:48:48;6.93;;;5.15;;
58372;SDS011;44177;43.356;27.672;2022-12-24T03:51:18;5.88;;;4.57;;
58372;SDS011;44177;43.356;27.672;2022-12-24T03:53:45;6.70;;;4.53;;
58372;SDS011;44177;43.356;27.672;2022-12-24T03:56:11;6.70;;;4.57;;
58372;SDS011;44177;43.356;27.672;2022-12-24T03:58:37;7.30;;;4.80;;
58372;SDS011;44177;43.356;27.672;2022-12-24T04:01:03;6.32;;;4.47;;
58372;SDS011;44177;43.356;27.672;2022-12-24T04:03:28;5.30;;;4.13;;
58372;SDS011;44177;43.356;27.672;2022-12-24T04:06:04;7.18;;;4.47;;
58372;SDS011;44177;43.356;27.672;2022-12-24T04:08:31;5.95;;;4.50;;
58372;SDS011;44177;43.356;27.672;2022-12-24T04:10:57;6.25;;;4.68;;
58372;SDS011;44177;43.356;27.672;2022-12-24T04:13:22;5.85;;;4.47;;
58372;SDS011;44177;43.356;27.672;2022-12-24T04:18:27;5.60;;;4.47;;
58372;SDS011;44177;43.356;27.672;2022-12-24T04:20:53;7.38;;;4.75;;
58372;SDS011;44177;43.356;27.672;2022-12-24T04:23:19;6.70;;;4.35;;
58372;SDS011;44177;43.356;27.672;2022-12-24T04:25:45;6.18;;;4.47;;
58372;SDS011;44177;43.356;27.672;2022-12-24T04:28:11;6.03;;;4.20;;
58372;SDS011;44177;43.356;27.672;2022-12-24T04:30:37;6.63;;;4.25;;
58372;SDS011;44177;43.356;27.672;2022-12-24T04:33:04;6.43;;;4.22;;
58372;SDS011;44177;43.356;27.672;2022-12-24T04:35:29;6.47;;;4.43;;
58372;SDS011;44177;43.356;27.672;2022-12-24T04:37:55;6.05;;;4.30;;
58372;SDS011;44177;43.356;27.672;2022-12-24T04:40:21;6.50;;;4.20;;
58372;SDS011;44177;43.356;27.672;2022-12-24T04:42:46;6.53;;;4.45;;
58372;SDS011;44177;43.356;27.672;2022-12-24T04:45:12;6.45;;;4.32;;
58372;SDS011;44177;43.356;27.672;2022-12-24T04:47:37;5.72;;;4.10;;
58372;SDS011;44177;43.356;27.672;2022-12-24T04:50:03;6.68;;;4.47;;
58372;SDS011;44177;43.356;27.672;2022-12-24T04:52:28;5.63;;;4.30;;
58372;SDS011;44177;43.356;27.672;2022-12-24T04:54:54;7.85;;;5.05;;
58372;SDS011;44177;43.356;27.672;2022-12-24T04:57:19;6.82;;;4.57;;
58372;SDS011;44177;43.356;27.672;2022-12-24T04:59:45;5.63;;;4.10;;
58372;SDS011;44177;43.356;27.672;2022-12-24T05:02:10;7.05;;;4.70;;
58372;SDS011;44177;43.356;27.672;2022-12-24T05:04:36;6.28;;;4.20;;
58372;SDS011;44177;43.356;27.672;2022-12-24T05:07:01;5.25;;;4.05;;
58372;SDS011;44177;43.356;27.672;2022-12-24T05:09:27;6.00;;;4.20;;
58372;SDS011;44177;43.356;27.672;2022-12-24T05:11:52;7.55;;;4.55;;
58372;SDS011;44177;43.356;27.672;2022-12-24T05:14:18;5.85;;;4.38;;
58372;SDS011;44177;43.356;27.672;2022-12-24T05:16:43;6.20;;;4.43;;
58372;SDS011;44177;43.356;27.672;2022-12-24T05:19:09;5.30;;;4.10;;
58372;SDS011;44177;43.356;27.672;2022-12-24T05:21:34;7.85;;;4.88;;
58372;SDS011;44177;43.356;27.672;2022-12-24T05:24:00;6.60;;;4.35;;
58372;SDS011;44177;43.356;27.672;2022-12-24T05:26:55;6.22;;;4.57;;
58372;SDS011;44177;43.356;27.672;2022-12-24T05:29:23;6.35;;;4.30;;
58372;SDS011;44177;43.356;27.672;2022-12-24T05:31:49;6.45;;;4.10;;
58372;SDS011;44177;43.356;27.672;2022-12-24T05:34:15;5.97;;;4.13;;
58372;SDS011;44177;43.356;27.672;2022-12-24T05:36:41;6.95;;;4.53;;
58372;SDS011;44177;43.356;27.672;2022-12-24T05:39:07;5.38;;;3.75;;
58372;SDS011;44177;43.356;27.672;2022-12-24T05:41:37;5.25;;;4.00;;
58372;SDS011;44177;43.356;27.672;2022-12-24T05:44:02;5.22;;;3.90;;
58372;SDS011;44177;43.356;27.672;2022-12-24T05:46:28;6.93;;;4.30;;
58372;SDS011;44177;43.356;27.672;2022-12-24T05:48:53;7.20;;;4.15;;
58372;SDS011;44177;43.356;27.672;2022-12-24T05:51:19;6.15;;;3.90;;
58372;SDS011;44177;43.356;27.672;2022-12-24T05:53:46;6.10;;;4.28;;
58372;SDS011;44177;43.356;27.672;2022-12-24T05:56:13;5.20;;;3.78;;
58372;SDS011;44177;43.356;27.672;2022-12-24T05:58:41;6.13;;;4.20;;
58372;SDS011;44177;43.356;27.672;2022-12-24T06:01:08;5.20;;;3.97;;
58372;SDS011;44177;43.356;27.672;2022-12-24T06:03:34;5.90;;;4.15;;
58372;SDS011;44177;43.356;27.672;2022-12-24T06:06:02;5.85;;;3.90;;
58372;SDS011;44177;43.356;27.672;2022-12-24T06:08:28;5.25;;;3.97;;
58372;SDS011;44177;43.356;27.672;2022-12-24T06:10:58;5.57;;;4.07;;
58372;SDS011;44177;43.356;27.672;2022-12-24T06:13:25;7.40;;;4.43;;
58372;SDS011;44177;43.356;27.672;2022-12-24T06:15:59;5.68;;;4.10;;
58372;SDS011;44177;43.356;27.672;2022-12-24T06:18:25;5.15;;;3.88;;
58372;SDS011;44177;43.356;27.672;2022-12-24T06:20:53;6.05;;;4.10;;
58372;SDS011;44177;43.356;27.672;2022-12-24T06:23:20;5.72;;;4.07;;
58372;SDS011;44177;43.356;27.672;2022-12-24T06:25:45;5.72;;;3.85;;
58372;SDS011;44177;43.356;27.672;2022-12-24T06:28:11;5.15;;;3.83;;
58372;SDS011;44177;43.356;27.672;2022-12-24T06:30:37;5.45;;;4.03;;
58372;SDS011;44177;43.356;27.672;2022-12-24T06:33:03;6.15;;;4.15;;
58372;SDS011;44177;43.356;27.672;2022-12-24T06:35:30;5.97;;;3.92;;
58372;SDS011;44177;43.356;27.672;2022-12-24T06:37:56;5.90;;;4.10;;
58372;SDS011;44177;43.356;27.672;2022-12-24T06:40:21;5.93;;;4.03;;
58372;SDS011;44177;43.356;27.672;2022-12-24T06:42:47;5.88;;;4.10;;
58372;SDS011;44177;43.356;27.672;2022-12-24T06:45:12;6.53;;;4.25;;
58372;SDS011;44177;43.356;27.672;2022-12-24T06:47:37;6.80;;;4.47;;
58372;SDS011;44177;43.356;27.672;2022-12-24T06:50:03;7.18;;;4.82;;
58372;SDS011;44177;43.356;27.672;2022-12-24T06:52:29;8.00;;;4.78;;
58372;SDS011;44177;43.356;27.672;2022-12-24T06:54:55;6.55;;;4.53;;
58372;SDS011;44177;43.356;27.672;2022-12-24T06:57:20;6.43;;;4.50;;
58372;SDS011;44177;43.356;27.672;2022-12-24T06:59:45;5.45;;;4.25;;
58372;SDS011;44177;43.356;27.672;2022-12-24T07:02:11;5.88;;;4.18;;
58372;SDS011;44177;43.356;27.672;2022-12-24T07:04:36;5.75;;;4.28;;
58372;SDS011;44177;43.356;27.672;2022-12-24T07:07:02;6.75;;;4.13;;
58372;SDS011;44177;43.356;27.672;2022-12-24T07:09:27;7.40;;;4.40;;
58372;SDS011;44177;43.356;27.672;2022-12-24T07:11:53;6.53;;;4.20;;
58372;SDS011;44177;43.356;27.672;2022-12-24T07:14:18;6.13;;;4.40;;
58372;SDS011;44177;43.356;27.672;2022-12-24T07:16:43;7.00;;;4.57;;
58372;SDS011;44177;43.356;27.672;2022-12-24T07:19:09;6.35;;;4.50;;
58372;SDS011;44177;43.356;27.672;2022-12-24T07:21:34;6.63;;;4.82;;
58372;SDS011;44177;43.356;27.672;2022-12-24T07:24:00;5.55;;;4.25;;
58372;SDS011;44177;43.356;27.672;2022-12-24T07:26:25;6.45;;;4.32;;
58372;SDS011;44177;43.356;27.672;2022-12-24T07:28:51;6.72;;;4.47;;
58372;SDS011;44177;43.356;27.672;2022-12-24T07:31:16;6.97;;;4.40;;
58372;SDS011;44177;43.356;27.672;2022-12-24T07:33:42;5.63;;;4.22;;
58372;SDS011;44177;43.356;27.672;2022-12-24T07:36:08;5.95;;;4.38;;
58372;SDS011;44177;43.356;27.672;2022-12-24T07:38:39;7.78;;;4.97;;
58372;SDS011;44177;43.356;27.672;2022-12-24T07:41:05;5.45;;;4.15;;
58372;SDS011;44177;43.356;27.672;2022-12-24T07:43:31;6.10;;;4.35;;
58372;SDS011;44177;43.356;27.672;2022-12-24T07:45:57;7.55;;;4.90;;
58372;SDS011;44177;43.356;27.672;2022-12-24T07:48:23;6.00;;;4.32;;
58372;SDS011;44177;43.356;27.672;2022-12-24T07:50:50;7.10;;;4.88;;
58372;SDS011;44177;43.356;27.672;2022-12-24T07:53:16;6.80;;;4.57;;
58372;SDS011;44177;43.356;27.672;2022-12-24T07:55:42;5.45;;;3.90;;
58372;SDS011;44177;43.356;27.672;2022-12-24T07:58:08;6.25;;;4.20;;
58372;SDS011;44177;43.356;27.672;2022-12-24T08:00:33;5.60;;;4.03;;
58372;SDS011;44177;43.356;27.672;2022-12-24T08:02:59;8.07;;;4.60;;
58372;SDS011;44177;43.356;27.672;2022-12-24T08:05:25;6.07;;;4.38;;
58372;SDS011;44177;43.356;27.672;2022-12-24T08:07:51;5.95;;;4.43;;
58372;SDS011;44177;43.356;27.672;2022-12-24T08:10:17;5.97;;;4.15;;
58372;SDS011;44177;43.356;27.672;2022-12-24T08:12:43;6.70;;;4.25;;
58372;SDS011;44177;43.356;27.672;2022-12-24T08:15:09;6.90;;;4.50;;
58372;SDS011;44177;43.356;27.672;2022-12-24T08:17:35;7.57;;;4.60;;
58372;SDS011;44177;43.356;27.672;2022-12-24T08:20:01;6.22;;;4.45;;
58372;SDS011;44177;43.356;27.672;2022-12-24T08:22:26;5.97;;;4.00;;
58372;SDS011;44177;43.356;27.672;2022-12-24T08:24:52;6.43;;;4.13;;
58372;SDS011;44177;43.356;27.672;2022-12-24T08:27:17;6.75;;;4.47;;
58372;SDS011;44177;43.356;27.672;2022-12-24T08:29:43;6.22;;;4.07;;
58372;SDS011;44177;43.356;27.672;2022-12-24T08:32:08;6.60;;;4.30;;
58372;SDS011;44177;43.356;27.672;2022-12-24T08:34:34;6.15;;;4.63;;
58372;SDS011;44177;43.356;27.672;2022-12-24T08:36:59;5.72;;;4.07;;
58372;SDS011;44177;43.356;27.672;2022-12-24T08:39:24;6.05;;;4.00;;
58372;SDS011;44177;43.356;27.672;2022-12-24T08:41:50;6.72;;;4.50;;
58372;SDS011;44177;43.356;27.672;2022-12-24T08:44:15;4.95;;;3.92;;
58372;SDS011;44177;43.356;27.672;2022-12-24T08:46:41;5.90;;;4.35;;
58372;SDS011;44177;43.356;27.672;2022-12-24T08:49:06;7.05;;;4.25;;
58372;SDS011;44177;43.356;27.672;2022-12-24T08:51:32;6.00;;;4.25;;
58372;SDS011;44177;43.356;27.672;2022-12-24T08:53:57;5.93;;;4.25;;
58372;SDS011;44177;43.356;27.672;2022-12-24T08:56:23;6.50;;;4.43;;
58372;SDS011;44177;43.356;27.672;2022-12-24T08:58:48;5.10;;;3.97;;
58372;SDS011;44177;43.356;27.672;2022-12-24T09:01:14;5.47;;;4.10;;
58372;SDS011;44177;43.356;27.672;2022-12-24T09:03:41;5.22;;;3.83;;
58372;SDS011;44177;43.356;27.672;2022-12-24T09:06:07;6.03;;;4.43;;
58372;SDS011;44177;43.356;27.672;2022-12-24T09:08:34;7.32;;;4.72;;
58372;SDS011;44177;43.356;27.672;2022-12-24T09:11:06;6.22;;;4.32;;
58372;SDS011;44177;43.356;27.672;2022-12-24T09:13:40;6.60;;;4.28;;
58372;SDS011;44177;43.356;27.672;2022-12-24T09:16:06;5.20;;;4.05;;
58372;SDS011;44177;43.356;27.672;2022-12-24T09:18:32;8.77;;;4.85;;
58372;SDS011;44177;43.356;27.672;2022-12-24T09:21:01;6.68;;;4.47;;
58372;SDS011;44177;43.356;27.672;2022-12-24T09:23:33;6.68;;;4.55;;
58372;SDS011;44177;43.356;27.672;2022-12-24T09:25:59;6.03;;;4.25;;
58372;SDS011;44177;43.356;27.672;2022-12-24T09:28:29;6.20;;;4.53;;
58372;SDS011;44177;43.356;27.672;2022-12-24T09:30:58;5.10;;;4.32;;
58372;SDS011;44177;43.356;27.672;2022-12-24T09:33:30;7.00;;;4.63;;
58372;SDS011;44177;43.356;27.672;2022-12-24T09:35:58;6.00;;;4.32;;
58372;SDS011;44177;43.356;27.672;2022-12-24T09:38:23;5.57;;;4.32;;
58372;SDS011;44177;43.356;27.672;2022-12-24T09:40:49;5.90;;;4.65;;
58372;SDS011;44177;43.356;27.672;2022-12-24T09:43:19;6.35;;;4.20;;
58372;SDS011;44177;43.356;27.672;2022-12-24T09:45:49;6.57;;;4.60;;
58372;SDS011;44177;43.356;27.672;2022-12-24T09:48:45;6.57;;;4.85;;
58372;SDS011;44177;43.356;27.672;2022-12-24T09:51:12;6.32;;;4.60;;
58372;SDS011;44177;43.356;27.672;2022-12-24T09:53:59;7.90;;;4.80;;
58372;SDS011;44177;43.356;27.672;2022-12-24T09:56:27;5.28;;;4.47;;
58372;SDS011;44177;43.356;27.672;2022-12-24T09:58:59;6.40;;;4.22;;
58372;SDS011;44177;43.356;27.672;2022-12-24T10:01:28;6.13;;;4.20;;
58372;SDS011;44177;43.356;27.672;2022-12-24T10:03:59;5.25;;;4.10;;
58372;SDS011;44177;43.356;27.672;2022-12-24T10:07:12;5.10;;;4.18;;
58372;SDS011;44177;43.356;27.672;2022-12-24T10:17:59;5.60;;;3.83;;
58372;SDS011;44177;43.356;27.672;2022-12-24T10:21:08;5.95;;;3.97;;
58372;SDS011;44177;43.356;27.672;2022-12-24T10:23:50;6.40;;;4.40;;
58372;SDS011;44177;43.356;27.672;2022-12-24T10:29:11;5.93;;;4.65;;
58372;SDS011;44177;43.356;27.672;2022-12-24T10:31:53;5.55;;;4.05;;
58372;SDS011;44177;43.356;27.672;2022-12-24T10:34:23;6.07;;;4.28;;
58372;SDS011;44177;43.356;27.672;2022-12-24T10:36:54;5.55;;;4.20;;
58372;SDS011;44177;43.356;27.672;2022-12-24T10:39:21;6.35;;;4.38;;
58372;SDS011;44177;43.356;27.672;2022-12-24T10:41:50;5.53;;;4.28;;
58372;SDS011;44177;43.356;27.672;2022-12-24T10:44:18;6.57;;;4.50;;
58372;SDS011;44177;43.356;27.672;2022-12-24T10:46:48;5.53;;;4.05;;
58372;SDS011;44177;43.356;27.672;2022-12-24T10:50:00;5.82;;;4.00;;
58372;SDS011;44177;43.356;27.672;2022-12-24T10:52:16;6.95;;;4.40;;
58372;SDS011;44177;43.356;27.672;2022-12-24T10:55:05;6.60;;;4.70;;
58372;SDS011;44177;43.356;27.672;2022-12-24T10:57:31;7.28;;;4.22;;
58372;SDS011;44177;43.356;27.672;2022-12-24T10:59:58;5.35;;;4.47;;
58372;SDS011;44177;43.356;27.672;2022-12-24T11:04:55;7.45;;;4.40;;
58372;SDS011;44177;43.356;27.672;2022-12-24T11:07:23;6.63;;;4.25;;
58372;SDS011;44177;43.356;27.672;2022-12-24T11:10:13;6.00;;;4.25;;
58372;SDS011;44177;43.356;27.672;2022-12-24T11:12:47;5.68;;;4.20;;
58372;SDS011;44177;43.356;27.672;2022-12-24T11:15:15;6.55;;;4.10;;
58372;SDS011;44177;43.356;27.672;2022-12-24T11:17:58;6.47;;;4.35;;
58372;SDS011;44177;43.356;27.672;2022-12-24T11:20:29;5.78;;;4.05;;
58372;SDS011;44177;43.356;27.672;2022-12-24T11:22:56;5.75;;;4.05;;
58372;SDS011;44177;43.356;27.672;2022-12-24T11:25:26;4.95;;;3.88;;
58372;SDS011;44177;43.356;27.672;2022-12-24T11:28:11;7.07;;;4.10;;
58372;SDS011;44177;43.356;27.672;2022-12-24T11:31:45;5.03;;;3.67;;
58372;SDS011;44177;43.356;27.672;2022-12-24T11:33:48;5.25;;;3.65;;
58372;SDS011;44177;43.356;27.672;2022-12-24T11:36:18;6.00;;;4.03;;
58372;SDS011;44177;43.356;27.672;2022-12-24T11:38:53;4.40;;;3.80;;
58372;SDS011;44177;43.356;27.672;2022-12-24T11:43:58;5.97;;;3.67;;
58372;SDS011;44177;43.356;27.672;2022-12-24T11:46:34;4.80;;;3.60;;
58372;SDS011;44177;43.356;27.672;2022-12-24T11:51:30;5.10;;;3.63;;
58372;SDS011;44177;43.356;27.672;2022-12-24T11:54:12;5.15;;;3.88;;
58372;SDS011;44177;43.356;27.672;2022-12-24T11:56:48;4.57;;;3.50;;
58372;SDS011;44177;43.356;27.672;2022-12-24T11:59:18;4.57;;;3.63;;
58372;SDS011;44177;43.356;27.672;2022-12-24T12:04:39;5.15;;;3.47;;
58372;SDS011;44177;43.356;27.672;2022-12-24T12:07:12;4.75;;;3.42;;
58372;SDS011;44177;43.356;27.672;2022-12-24T12:09:49;4.80;;;3.15;;
58372;SDS011;44177;43.356;27.672;2022-12-24T12:12:21;4.32;;;3.42;;
58372;SDS011;44177;43.356;27.672;2022-12-24T12:15:00;4.57;;;3.25;;
58372;SDS011;44177;43.356;27.672;2022-12-24T12:17:38;4.80;;;3.40;;
58372;SDS011;44177;43.356;27.672;2022-12-24T12:25:44;5.15;;;3.20;;
58372;SDS011;44177;43.356;27.672;2022-12-24T12:39:35;4.00;;;3.15;;
58372;SDS011;44177;43.356;27.672;2022-12-24T12:42:04;5.25;;;3.22;;
58372;SDS011;44177;43.356;27.672;2022-12-24T13:04:42;4.53;;;2.95;;
58372;SDS011;44177;43.356;27.672;2022-12-24T13:12:45;4.15;;;2.83;;
58372;SDS011;44177;43.356;27.672;2022-12-24T13:23:03;4.43;;;3.17;;
58372;SDS011;44177;43.356;27.672;2022-12-24T13:25:48;4.57;;;2.67;;
58372;SDS011;44177;43.356;27.672;2022-12-24T13:30:47;4.43;;;3.10;;
58372;SDS011;44177;43.356;27.672;2022-12-24T13:38:30;3.50;;;2.83;;
58372;SDS011;44177;43.356;27.672;2022-12-24T13:40:55;4.90;;;2.83;;
58372;SDS011;44177;43.356;27.672;2022-12-24T13:49:31;4.60;;;2.60;;
58372;SDS011;44177;43.356;27.672;2022-12-24T13:52:33;3.20;;;2.50;;
58372;SDS011;44177;43.356;27.672;2022-12-24T13:57:42;4.28;;;2.63;;
58372;SDS011;44177;43.356;27.672;2022-12-24T14:02:57;3.33;;;2.70;;
58372;SDS011;44177;43.356;27.672;2022-12-24T14:05:45;3.60;;;2.65;;
58372;SDS011;44177;43.356;27.672;2022-12-24T14:21:31;2.97;;;2.60;;
58372;SDS011;44177;43.356;27.672;2022-12-24T14:24:00;3.17;;;2.45;;
58372;SDS011;44177;43.356;27.672;2022-12-24T14:26:30;3.60;;;2.65;;
58372;SDS011;44177;43.356;27.672;2022-12-24T14:29:25;4.20;;;2.65;;
58372;SDS011;44177;43.356;27.672;2022-12-24T14:31:52;4.63;;;2.90;;
58372;SDS011;44177;43.356;27.672;2022-12-24T14:34:19;2.75;;;2.38;;
58372;SDS011;44177;43.356;27.672;2022-12-24T14:36:45;3.70;;;2.65;;
58372;SDS011;44177;43.356;27.672;2022-12-24T14:39:23;4.05;;;2.50;;
58372;SDS011;44177;43.356;27.672;2022-12-24T14:45:03;2.65;;;2.30;;
58372;SDS011;44177;43.356;27.672;2022-12-24T14:47:44;3.35;;;2.35;;
58372;SDS011;44177;43.356;27.672;2022-12-24T14:50:24;3.20;;;2.35;;
58372;SDS011;44177;43.356;27.672;2022-12-24T14:55:56;2.72;;;2.30;;
58372;SDS011;44177;43.356;27.672;2022-12-24T14:58:23;3.63;;;2.47;;
58372;SDS011;44177;43.356;27.672;2022-12-24T15:00:57;3.55;;;2.50;;
58372;SDS011;44177;43.356;27.672;2022-12-24T15:03:26;3.92;;;2.70;;
58372;SDS011;44177;43.356;27.672;2022-12-24T15:05:57;2.83;;;2.38;;
58372;SDS011;44177;43.356;27.672;2022-12-24T15:08:30;2.60;;;2.22;;
58372;SDS011;44177;43.356;27.672;2022-12-24T15:11:01;3.67;;;2.42;;
58372;SDS011;44177;43.356;27.672;2022-12-24T15:13:40;4.40;;;2.55;;
58372;SDS011;44177;43.356;27.672;2022-12-24T15:16:12;3.13;;;2.40;;
58372;SDS011;44177;43.356;27.672;2022-12-24T15:18:44;3.55;;;2.55;;
58372;SDS011;44177;43.356;27.672;2022-12-24T15:27:02;4.10;;;2.63;;
58372;SDS011;44177;43.356;27.672;2022-12-24T15:29:42;2.55;;;2.15;;
58372;SDS011;44177;43.356;27.672;2022-12-24T15:32:15;2.53;;;2.15;;
58372;SDS011;44177;43.356;27.672;2022-12-24T15:34:43;3.22;;;2.28;;
58372;SDS011;44177;43.356;27.672;2022-12-24T15:37:15;2.75;;;2.10;;
58372;SDS011;44177;43.356;27.672;2022-12-24T15:40:02;2.80;;;2.15;;
58372;SDS011;44177;43.356;27.672;2022-12-24T15:42:35;3.35;;;2.40;;
58372;SDS011;44177;43.356;27.672;2022-12-24T15:45:10;4.13;;;2.40;;
58372;SDS011;44177;43.356;27.672;2022-12-24T15:47:45;3.53;;;2.42;;
58372;SDS011;44177;43.356;27.672;2022-12-24T15:50:15;3.60;;;2.10;;
58372;SDS011;44177;43.356;27.672;2022-12-24T15:52:46;4.15;;;2.72;;
58372;SDS011;44177;43.356;27.672;2022-12-24T15:58:25;3.15;;;2.30;;
58372;SDS011;44177;43.356;27.672;2022-12-24T16:00:59;2.80;;;2.17;;
58372;SDS011;44177;43.356;27.672;2022-12-24T16:03:27;2.75;;;2.00;;
58372;SDS011;44177;43.356;27.672;2022-12-24T16:06:05;3.65;;;2.10;;
58372;SDS011;44177;43.356;27.672;2022-12-24T16:08:36;2.47;;;2.10;;
58372;SDS011;44177;43.356;27.672;2022-12-24T16:13:29;2.65;;;2.28;;
58372;SDS011;44177;43.356;27.672;2022-12-24T16:16:04;3.13;;;2.10;;
58372;SDS011;44177;43.356;27.672;2022-12-24T16:18:34;3.33;;;2.08;;
58372;SDS011;44177;43.356;27.672;2022-12-24T16:21:02;2.70;;;1.85;;
58372;SDS011;44177;43.356;27.672;2022-12-24T16:23:48;3.22;;;2.25;;
58372;SDS011;44177;43.356;27.672;2022-12-24T16:26:17;2.80;;;2.05;;
58372;SDS011;44177;43.356;27.672;2022-12-24T16:28:42;2.35;;;1.95;;
58372;SDS011;44177;43.356;27.672;2022-12-24T16:31:14;3.15;;;2.22;;
58372;SDS011;44177;43.356;27.672;2022-12-24T16:33:52;3.08;;;2.08;;
58372;SDS011;44177;43.356;27.672;2022-12-24T16:36:19;3.90;;;2.30;;
58372;SDS011;44177;43.356;27.672;2022-12-24T16:38:45;2.60;;;2.17;;
58372;SDS011;44177;43.356;27.672;2022-12-24T16:41:29;3.20;;;2.20;;
58372;SDS011;44177;43.356;27.672;2022-12-24T16:44:14;2.55;;;1.98;;
58372;SDS011;44177;43.356;27.672;2022-12-24T16:46:40;3.42;;;2.45;;
58372;SDS011;44177;43.356;27.672;2022-12-24T16:49:05;2.88;;;2.20;;
58372;SDS011;44177;43.356;27.672;2022-12-24T16:51:35;2.80;;;2.30;;
58372;SDS011;44177;43.356;27.672;2022-12-24T16:54:00;2.90;;;2.35;;
58372;SDS011;44177;43.356;27.672;2022-12-24T16:56:25;3.38;;;2.08;;
58372;SDS011;44177;43.356;27.672;2022-12-24T16:58:52;2.25;;;1.80;;
58372;SDS011;44177;43.356;27.672;2022-12-24T17:01:17;3.15;;;2.08;;
58372;SDS011;44177;43.356;27.672;2022-12-24T17:03:43;2.90;;;2.10;;
58372;SDS011;44177;43.356;27.672;2022-12-24T17:06:08;2.53;;;2.00;;
58372;SDS011;44177;43.356;27.672;2022-12-24T17:08:34;3.40;;;2.25;;
58372;SDS011;44177;43.356;27.672;2022-12-24T17:10:59;3.30;;;2.00;;
58372;SDS011;44177;43.356;27.672;2022-12-24T17:13:25;2.50;;;2.05;;
58372;SDS011;44177;43.356;27.672;2022-12-24T17:15:50;3.15;;;2.20;;
58372;SDS011;44177;43.356;27.672;2022-12-24T17:18:15;2.70;;;2.00;;